Time;durP1;ratioP1;P1;durP2;ratioP2;P2;SDS_P1;SDS_P2;PMS_P1;PMS_P2;Temp;Humidity;BMP_temperature;BMP_pressure;BME280_temperature;BME280_humidity;BME280_pressure;Samples;Min_cycle;Max_cycle;Signal;HPM_P1;HPM_P2
2022/08/29 00:03:21;;;;;;;7.38;4.05;;;;;;;14.69;81.00;102240.84;10298210;28;20053;-70
2022/08/29 00:08:21;;;;;;;7.38;3.65;;;;;;;14.65;81.94;102235.78;10299014;28;20031;-70
2022/08/29 00:13:21;;;;;;;6.28;3.88;;;;;;;14.69;81.52;102230.78;10298781;28;20027;-70
2022/08/29 00:18:22;;;;;;;8.32;3.97;;;;;;;14.63;80.91;102239.72;10298543;28;20530;-70
2022/08/29 00:23:22;;;;;;;12.75;4.18;;;;;;;14.63;81.58;102243.28;10298861;28;20042;-70
2022/08/29 00:28:22;;;;;;;5.90;4.65;;;;;;;14.63;81.04;102243.28;10298716;28;20451;-70
2022/08/29 00:33:23;;;;;;;11.60;5.20;;;;;;;14.63;80.76;102243.28;10297338;28;20027;-71
2022/08/29 00:38:23;;;;;;;5.38;4.25;;;;;;;14.55;80.70;102235.25;10298570;28;20121;-70
2022/08/29 00:43:26;;;;;;;11.00;5.70;;;;;;;14.43;80.96;102236.72;10298364;28;20045;-70
2022/08/29 00:48:27;;;;;;;8.82;4.43;;;;;;;14.35;80.67;102242.28;10280988;28;20030;-70
2022/08/29 00:53:39;;;;;;;5.70;5.05;;;;;;;14.26;81.15;102240.69;10295380;28;20034;-70
2022/08/29 00:58:41;;;;;;;6.43;4.80;;;;;;;14.20;81.27;102236.84;10295605;28;20022;-71
2022/08/29 01:03:42;;;;;;;8.50;4.95;;;;;;;14.17;81.66;102240.78;10294443;28;20296;-71
2022/08/29 01:08:42;;;;;;;8.40;5.30;;;;;;;14.09;80.70;102240.03;10297188;28;20031;-70
2022/08/29 01:13:44;;;;;;;5.68;4.20;;;;;;;14.02;81.02;102248.13;10295989;28;20037;-70
2022/08/29 01:18:47;;;;;;;10.38;4.68;;;;;;;13.94;80.81;102242.75;10295033;28;20023;-71
2022/08/29 01:24:09;;;;;;;9.40;3.88;;;;;;;13.90;80.98;102233.25;10293936;28;20043;-70
2022/08/29 01:29:09;;;;;;;4.95;4.45;;;;;;;13.82;80.31;102247.81;10295889;28;20031;-70
2022/08/29 01:34:10;;;;;;;14.05;5.15;;;;;;;13.76;80.31;102245.00;10293917;28;20029;-71
2022/08/29 01:39:10;;;;;;;5.55;4.82;;;;;;;13.75;80.78;102256.91;10295271;28;20043;-71
2022/08/29 01:44:18;;;;;;;6.65;4.80;;;;;;;13.72;82.37;102249.97;10294150;28;20046;-70
2022/08/29 01:49:19;;;;;;;9.23;5.68;;;;;;;13.69;84.75;102253.91;10295396;28;20102;-70
2022/08/29 01:54:20;;;;;;;7.93;5.03;;;;;;;13.63;83.09;102246.47;10293431;28;20036;-70
2022/08/29 01:59:25;;;;;;;14.57;5.88;;;;;;;13.57;82.56;102249.94;10293669;28;20447;-70
2022/08/29 02:04:26;;;;;;;9.00;4.97;;;;;;;13.50;82.04;102251.72;10278629;28;20077;-70
2022/08/29 02:09:27;;;;;;;8.10;5.00;;;;;;;13.43;82.43;102256.16;10276861;28;20031;-71
2022/08/29 02:14:28;;;;;;;10.85;4.68;;;;;;;13.40;81.92;102248.38;10294422;28;20050;-70
2022/08/29 02:19:29;;;;;;;19.77;6.65;;;;;;;13.36;81.82;102238.91;10294049;28;20086;-71
2022/08/29 02:24:29;;;;;;;16.48;6.28;;;;;;;13.33;82.31;102241.97;10295093;28;20047;-70
2022/08/29 02:29:30;;;;;;;6.10;4.72;;;;;;;13.31;82.34;102242.19;10301887;28;20424;-70
2022/08/29 02:34:30;;;;;;;9.07;4.22;;;;;;;13.33;82.54;102247.41;10301914;28;20116;-70
2022/08/29 02:39:30;;;;;;;8.68;4.82;;;;;;;13.36;82.56;102236.16;10303615;28;20051;-70
2022/08/29 02:44:31;;;;;;;11.30;5.57;;;;;;;13.41;82.70;102241.91;10301975;28;20042;-70
2022/08/29 02:49:31;;;;;;;6.22;4.40;;;;;;;13.37;82.51;102241.44;10302358;28;20043;-70
2022/08/29 02:54:31;;;;;;;4.93;4.43;;;;;;;13.33;82.22;102242.81;10301752;28;20038;-70
2022/08/29 02:59:32;;;;;;;3.70;3.40;;;;;;;13.32;82.54;102251.19;10299708;28;20480;-70
2022/08/29 03:04:32;;;;;;;7.90;5.10;;;;;;;13.27;82.41;102240.81;10301295;28;20038;-70
2022/08/29 03:09:32;;;;;;;5.32;3.75;;;;;;;13.21;82.72;102249.72;10299795;28;20107;-70
2022/08/29 03:14:33;;;;;;;5.18;4.13;;;;;;;13.14;82.94;102235.13;10301394;28;20057;-70
2022/08/29 03:19:33;;;;;;;4.45;4.05;;;;;;;13.04;83.08;102232.66;10300171;28;20536;-70
2022/08/29 03:24:35;;;;;;;12.07;4.90;;;;;;;12.96;82.65;102230.00;10268421;28;20070;-70
2022/08/29 03:29:37;;;;;;;8.75;4.93;;;;;;;12.91;82.75;102226.97;10299388;28;20081;-70
2022/08/29 03:34:37;;;;;;;5.20;3.97;;;;;;;12.88;82.93;102224.59;10299012;28;20490;-70
2022/08/29 03:39:37;;;;;;;4.25;3.85;;;;;;;12.86;83.51;102221.22;10297105;28;20081;-70
2022/08/29 03:44:39;;;;;;;10.75;4.15;;;;;;;12.90;83.23;102217.13;10300218;28;20038;-70
2022/08/29 03:49:39;;;;;;;9.23;4.97;;;;;;;12.87;83.08;102214.78;10300068;28;20371;-70
2022/08/29 03:54:40;;;;;;;7.82;4.35;;;;;;;12.87;83.05;102212.06;10298703;28;20030;-71
2022/08/29 03:59:41;;;;;;;4.63;3.78;;;;;;;12.91;83.55;102202.50;10299227;28;20114;-70
2022/08/29 04:10:03;;;;;;;4.20;3.17;;;;;;;12.98;83.29;102200.75;10297690;28;20063;-69
2022/08/29 04:15:04;;;;;;;5.28;3.50;;;;;;;12.98;83.21;102206.19;10297560;28;20030;-70
2022/08/29 04:20:06;;;;;;;4.13;3.40;;;;;;;12.99;83.49;102216.88;10298351;28;20117;-70
2022/08/29 04:25:08;;;;;;;4.07;3.42;;;;;;;12.94;83.09;102218.44;10280876;28;20031;-70
2022/08/29 04:30:12;;;;;;;8.75;4.15;;;;;;;12.92;83.69;102209.63;10296824;28;20422;-70
2022/08/29 04:35:13;;;;;;;5.80;5.15;;;;;;;12.95;83.46;102220.13;10295789;28;20029;-70
2022/08/29 04:40:16;;;;;;;3.63;3.30;;;;;;;12.99;83.64;102227.78;10282451;28;20026;-70
2022/08/29 04:45:19;;;;;;;6.97;4.05;;;;;;;13.11;83.91;102233.59;10299548;28;20031;-70
2022/08/29 04:50:21;;;;;;;7.15;3.50;;;;;;;13.20;83.93;102234.41;10279503;28;20027;-70
2022/08/29 04:55:21;;;;;;;5.88;4.47;;;;;;;13.39;83.95;102242.09;10296778;28;20041;-70
2022/08/29 05:00:24;;;;;;;6.25;4.28;;;;;;;13.58;84.29;102243.44;10297395;28;20027;-71
2022/08/29 05:05:25;;;;;;;15.60;3.65;;;;;;;13.72;84.70;102241.81;10279366;28;20101;-70
2022/08/29 05:10:25;;;;;;;4.20;2.92;;;;;;;13.90;84.15;102249.59;10295605;28;20027;-70
2022/08/29 05:15:30;;;;;;;8.20;4.05;;;;;;;14.07;84.45;102252.97;10227142;27;12310632;-69
2022/08/29 05:20:31;;;;;;;4.13;3.72;;;;;;;14.24;84.47;102253.66;10617867;28;20063;-69
2022/08/29 05:25:31;;;;;;;5.72;3.95;;;;;;;14.39;84.33;102257.22;10616592;28;20046;-69
2022/08/29 05:30:32;;;;;;;7.18;3.70;;;;;;;14.53;84.37;102259.09;10616607;28;20076;-69
2022/08/29 05:35:33;;;;;;;5.15;3.38;;;;;;;14.67;84.94;102272.91;10616498;28;20110;-69
2022/08/29 05:40:34;;;;;;;5.88;4.57;;;;;;;14.72;84.67;102268.56;10617210;27;20042;-69
2022/08/29 05:45:36;;;;;;;3.55;3.25;;;;;;;14.78;84.86;102266.97;10615894;28;20050;-69
2022/08/29 05:50:40;;;;;;;4.78;3.75;;;;;;;14.93;84.65;102267.75;10617035;27;20027;-69
2022/08/29 05:55:41;;;;;;;7.32;2.83;;;;;;;15.04;84.19;102269.97;10615801;28;20058;-69
2022/08/29 06:00:43;;;;;;;6.28;4.03;;;;;;;15.24;84.18;102269.31;10615223;28;20035;-69
2022/08/29 06:05:49;;;;;;;7.25;3.05;;;;;;;15.48;83.68;102273.56;10616234;27;20046;-70
2022/08/29 06:10:49;;;;;;;2.33;1.98;;;;;;;15.73;84.29;102273.97;10614162;28;20430;-69
2022/08/29 06:15:50;;;;;;;6.93;3.80;;;;;;;15.87;83.84;102264.84;10616264;28;20118;-69
2022/08/29 06:20:50;;;;;;;4.15;2.85;;;;;;;15.93;83.94;102269.53;10615526;28;20531;-69
2022/08/29 06:25:55;;;;;;;6.03;3.95;;;;;;;15.93;83.61;102264.06;10593022;28;20462;-70
2022/08/29 06:30:56;;;;;;;4.43;3.78;;;;;;;16.14;83.30;102274.06;10586953;28;20070;-69
2022/08/29 06:35:57;;;;;;;4.18;3.60;;;;;;;16.27;83.20;102276.03;10585425;28;20039;-69
2022/08/29 06:41:04;;;;;;;6.40;3.03;;;;;;;16.35;83.11;102275.03;10481496;28;20475;-70
2022/08/29 06:46:05;;;;;;;5.35;3.60;;;;;;;16.50;83.28;102279.31;10501712;28;20490;-70
2022/08/29 06:51:05;;;;;;;5.85;2.95;;;;;;;16.86;82.67;102272.75;10502400;28;20117;-70
2022/08/29 06:56:06;;;;;;;7.88;2.92;;;;;;;17.42;82.54;102275.19;10500992;28;20040;-70
2022/08/29 07:01:08;;;;;;;5.95;2.80;;;;;;;19.32;79.82;102272.28;10501898;28;20174;-70
2022/08/29 07:06:08;;;;;;;5.60;2.78;;;;;;;20.26;79.24;102273.16;10500583;28;20036;-68
2022/08/29 07:11:09;;;;;;;3.03;2.75;;;;;;;20.65;78.31;102271.88;10501289;28;21163;-68
2022/08/29 07:16:11;;;;;;;2.70;2.42;;;;;;;20.93;77.33;102278.72;10517081;28;20479;-69
2022/08/29 07:21:14;;;;;;;4.63;3.38;;;;;;;20.54;74.34;102275.38;10500982;28;20483;-70
2022/08/29 07:26:20;;;;;;;4.47;3.30;;;;;;;20.41;75.11;102275.50;10516201;28;20033;-69
2022/08/29 07:31:20;;;;;;;8.85;2.83;;;;;;;20.32;75.61;102279.63;10516252;28;20032;-73
2022/08/29 07:36:21;;;;;;;7.47;3.13;;;;;;;20.07;75.62;102280.56;10497949;28;20033;-69
2022/08/29 07:41:22;;;;;;;3.95;2.45;;;;;;;19.96;75.69;102281.28;10498403;28;20379;-69
2022/08/29 07:46:24;;;;;;;6.18;4.10;;;;;;;19.89;75.78;102280.53;10499230;28;20491;-69
2022/08/29 07:51:25;;;;;;;3.60;2.55;;;;;;;19.86;74.68;102280.97;10498929;28;20410;-69
2022/08/29 07:56:31;;;;;;;3.03;2.80;;;;;;;19.92;74.21;102274.56;10499411;28;20020;-69
2022/08/29 08:01:31;;;;;;;3.70;2.53;;;;;;;19.97;73.71;102274.72;10498882;28;20464;-69
2022/08/29 08:06:32;;;;;;;3.58;2.63;;;;;;;19.94;73.70;102275.16;10499130;28;20048;-69
2022/08/29 08:11:33;;;;;;;4.93;3.83;;;;;;;20.24;73.00;102275.28;10497156;28;20388;-69
2022/08/29 08:16:33;;;;;;;7.28;2.90;;;;;;;21.66;68.91;102285.84;10497231;28;20074;-69
2022/08/29 08:21:34;;;;;;;3.25;2.88;;;;;;;22.02;68.91;102275.69;10498419;28;20052;-69
2022/08/29 08:26:35;;;;;;;21.85;3.42;;;;;;;22.08;66.95;102274.72;10497845;28;20452;-69
2022/08/29 08:31:35;;;;;;;3.25;2.95;;;;;;;21.65;65.07;102269.56;10497750;28;20419;-69
2022/08/29 08:36:37;;;;;;;10.90;3.40;;;;;;;21.96;65.12;102269.22;10496781;28;20372;-69
2022/08/29 08:41:48;;;;;;;5.00;3.25;;;;;;;21.35;63.89;102276.00;10496298;28;20039;-69
2022/08/29 08:46:54;;;;;;;3.85;2.55;;;;;;;21.02;64.93;102291.06;10512245;28;20048;-69
2022/08/29 08:51:57;;;;;;;4.47;3.60;;;;;;;21.72;63.26;102290.41;10496449;28;20094;-69
2022/08/29 08:57:06;;;;;;;6.75;3.60;;;;;;;23.21;59.79;102291.72;10496007;28;20111;-71
2022/08/29 09:02:33;;;;;;;3.78;3.08;;;;;;;22.69;62.33;102294.56;10496298;28;20103;-69
2022/08/29 09:07:46;;;;;;;;;;;;;;;21.80;59.35;102295.59;10497861;28;20438;-71
2022/08/29 09:13:18;;;;;;;5.60;2.83;;;;;;;21.53;58.83;102289.66;10491512;28;20307;-72
2022/08/29 09:18:44;;;;;;;3.28;2.88;;;;;;;21.79;55.96;102293.91;10488647;28;20032;-72
2022/08/29 09:23:46;;;;;;;4.53;2.33;;;;;;;21.40;53.80;102292.63;10494977;28;20044;-73
2022/08/29 09:28:47;;;;;;;4.43;3.55;;;;;;;21.43;57.02;102292.16;10494503;28;20036;-73
2022/08/29 09:33:59;;;;;;;4.43;3.38;;;;;;;21.51;56.00;102291.84;10495529;28;20032;-73
2022/08/29 09:39:09;;;;;;;3.72;2.38;;;;;;;21.37;56.75;102298.63;10495767;28;20068;-74
2022/08/29 09:44:18;;;;;;;4.85;2.80;;;;;;;20.80;54.89;102298.13;10511412;28;20040;-73
2022/08/29 09:49:19;;;;;;;11.50;2.55;;;;;;;20.34;55.78;102294.00;10510986;28;20423;-71
2022/08/29 09:54:27;;;;;;;2.85;2.20;;;;;;;20.40;58.81;102290.34;10493448;28;20079;-73
2022/08/29 09:59:32;;;;;;;4.82;2.42;;;;;;;20.70;59.23;102284.91;10497336;28;20124;-71
2022/08/29 10:04:37;;;;;;;5.18;2.40;;;;;;;20.81;59.34;102294.34;10502445;28;20102;-72
2022/08/29 10:09:38;;;;;;;7.65;3.50;;;;;;;20.80;58.78;102298.13;10489102;28;20043;-73
2022/08/29 10:14:48;;;;;;;5.35;2.92;;;;;;;21.10;58.61;102290.72;10494841;28;20057;-71
2022/08/29 10:19:49;;;;;;;7.15;2.85;;;;;;;21.23;55.14;102297.97;10475860;28;20036;-72
2022/08/29 10:25:03;;;;;;;3.55;2.63;;;;;;;21.23;57.03;102305.38;10500567;28;20489;-69
2022/08/29 10:30:08;;;;;;;3.20;2.42;;;;;;;21.16;58.33;102299.16;10502006;28;20464;-71
2022/08/29 10:35:29;;;;;;;3.63;2.75;;;;;;;21.73;57.36;102299.50;10500502;28;20112;-70
2022/08/29 10:40:36;;;;;;;6.53;2.92;;;;;;;22.09;55.57;102292.13;10500026;28;20422;-71
2022/08/29 10:46:15;;;;;;;6.32;2.42;;;;;;;22.09;55.77;102281.06;10461380;28;20432;-70
2022/08/29 10:51:35;;;;;;;5.07;2.65;;;;;;;21.89;56.44;102274.00;10451263;28;20140;-71
2022/08/29 10:56:40;;;;;;;4.28;3.08;;;;;;;21.38;54.99;102274.66;10431129;28;20136;-70
2022/08/29 11:01:42;;;;;;;2.03;1.93;;;;;;;20.99;56.15;102277.75;10460084;28;20099;-71
2022/08/29 11:07:05;;;;;;;4.30;2.78;;;;;;;20.99;56.12;102269.47;10459460;28;20025;-73
2022/08/29 11:12:33;;;;;;;8.70;2.40;;;;;;;21.61;55.97;102257.34;10458854;28;20095;-73
2022/08/29 11:17:36;;;;;;;3.35;3.03;;;;;;;22.36;54.39;102265.69;10480480;28;20032;-73
2022/08/29 11:22:49;;;;;;;5.88;3.25;;;;;;;22.51;52.53;102260.50;10499793;28;20048;-73
2022/08/29 11:28:17;;;;;;;5.20;3.05;;;;;;;23.13;52.06;102259.81;10498634;28;20392;-74
2022/08/29 11:33:31;;;;;;;2.97;2.38;;;;;;;22.69;52.80;102245.69;10482808;28;20162;-74
2022/08/29 11:38:47;;;;;;;8.35;1.98;;;;;;;22.65;53.01;102250.00;10482794;28;20047;-75
2022/08/29 11:43:49;;;;;;;6.22;2.95;;;;;;;22.50;51.18;102250.56;10496025;28;20016;-72
2022/08/29 11:48:51;;;;;;;8.00;3.22;;;;;;;22.17;52.92;102253.13;10498693;28;20039;-69
2022/08/29 11:53:52;;;;;;;5.10;2.60;;;;;;;22.61;53.65;102240.53;10497089;28;20052;-69
2022/08/29 11:58:56;;;;;;;4.95;2.58;;;;;;;22.72;53.66;102247.13;10497956;28;20068;-69
2022/08/29 12:03:56;;;;;;;3.60;2.75;;;;;;;22.68;53.09;102244.00;10499276;28;20028;-69
2022/08/29 12:09:12;;;;;;;8.25;2.42;;;;;;;23.56;52.50;102244.50;10497054;28;20081;-70
2022/08/29 12:14:31;;;;;;;4.00;2.05;;;;;;;23.94;52.90;102229.06;10498327;28;20060;-70
2022/08/29 12:19:45;;;;;;;12.07;4.32;;;;;;;24.63;49.38;102242.41;10496067;28;20372;-69
2022/08/29 12:24:46;;;;;;;5.60;3.63;;;;;;;24.39;52.60;102238.22;10493516;28;20056;-69
2022/08/29 12:29:46;;;;;;;5.70;3.47;;;;;;;24.76;52.62;102228.19;10494798;28;20064;-69
2022/08/29 12:34:53;;;;;;;2.75;2.53;;;;;;;25.54;51.87;102222.25;10495513;28;20467;-71
2022/08/29 12:40:08;;;;;;;5.80;3.22;;;;;;;26.07;49.71;102211.19;10474884;28;20025;-67
2022/08/29 12:45:16;;;;;;;9.82;4.22;;;;;;;26.06;49.83;102207.59;10454800;28;20033;-67
2022/08/29 12:50:22;;;;;;;9.32;2.53;;;;;;;25.84;48.65;102209.69;10457806;28;20024;-69
2022/08/29 12:55:25;;;;;;;3.30;2.67;;;;;;;25.50;49.18;102198.91;10478012;28;20500;-68
2022/08/29 13:00:27;;;;;;;3.17;2.67;;;;;;;25.02;51.34;102206.25;10496754;28;20033;-69
2022/08/29 13:05:28;;;;;;;5.25;3.42;;;;;;;24.75;49.14;102193.25;10478852;28;20029;-70
2022/08/29 13:10:29;;;;;;;4.30;3.33;;;;;;;25.30;49.11;102182.94;10478427;28;20107;-68
2022/08/29 13:15:29;;;;;;;5.82;4.38;;;;;;;25.95;48.50;102187.28;10477453;28;20143;-67
2022/08/29 13:20:48;;;;;;;11.15;2.95;;;;;;;26.76;44.59;102183.13;10477417;28;20387;-67
2022/08/29 13:26:08;;;;;;;3.88;2.92;;;;;;;25.43;47.90;102192.75;10494984;28;20119;-68
2022/08/29 13:31:11;;;;;;;3.85;3.45;;;;;;;24.31;49.11;102185.00;10494759;28;20475;-69
2022/08/29 13:36:31;;;;;;;3.13;2.80;;;;;;;23.54;50.26;102194.13;10502010;28;20036;-68
2022/08/29 13:41:32;;;;;;;4.93;4.10;;;;;;;22.98;51.06;102185.78;10502975;28;20040;-68
2022/08/29 13:46:32;;;;;;;4.35;3.58;;;;;;;22.57;52.33;102184.16;10504107;28;20472;-67
2022/08/29 13:51:32;;;;;;;7.20;3.15;;;;;;;21.98;53.25;102178.75;10503394;28;20054;-70
2022/08/29 13:56:33;;;;;;;6.63;4.20;;;;;;;21.88;53.66;102162.00;10503416;28;20488;-70
2022/08/29 14:01:33;;;;;;;4.40;3.08;;;;;;;22.29;53.31;102166.47;10502060;28;20478;-71
2022/08/29 14:06:34;;;;;;;4.57;3.42;;;;;;;24.03;51.90;102158.34;10502610;28;20090;-70
2022/08/29 14:11:34;;;;;;;4.88;3.13;;;;;;;25.52;51.19;102147.59;10500723;28;20064;-69
2022/08/29 14:16:34;;;;;;;7.13;4.47;;;;;;;26.00;47.70;102150.38;10502202;28;20113;-71
2022/08/29 14:21:35;;;;;;;5.78;4.47;;;;;;;24.37;48.46;102147.94;10539836;28;20040;-69
2022/08/29 14:26:35;;;;;;;5.30;3.47;;;;;;;23.72;50.83;102145.19;10519056;28;20076;-73
2022/08/29 14:31:36;;;;;;;8.95;3.50;;;;;;;23.21;51.15;102150.78;10501634;28;20060;-70
2022/08/29 14:36:37;;;;;;;3.35;2.60;;;;;;;23.21;51.08;102142.47;10501941;28;20067;-70
2022/08/29 14:41:37;;;;;;;10.90;3.65;;;;;;;24.17;48.41;102130.28;10501674;28;20040;-69
2022/08/29 14:46:37;;;;;;;4.88;3.20;;;;;;;24.05;49.90;102130.41;10489158;28;20069;-71
2022/08/29 14:51:38;;;;;;;7.55;3.75;;;;;;;24.32;51.16;102116.63;10460257;28;20388;-71
2022/08/29 14:56:44;;;;;;;3.58;3.28;;;;;;;24.88;50.16;102108.03;10459954;28;20041;-71
2022/08/29 15:01:45;;;;;;;2.92;2.45;;;;;;;24.70;51.87;102110.09;10460505;28;20108;-71
2022/08/29 15:06:45;;;;;;;3.55;2.97;;;;;;;24.12;48.33;102108.91;10459432;28;20124;-72
2022/08/29 15:11:46;;;;;;;9.25;2.78;;;;;;;23.08;47.75;102110.50;10460335;28;20068;-71
2022/08/29 15:16:46;;;;;;;6.38;3.28;;;;;;;22.21;49.64;102108.13;10459621;28;20052;-71
2022/08/29 15:21:46;;;;;;;7.97;2.85;;;;;;;21.81;50.58;102104.22;10459483;28;20065;-71
2022/08/29 15:26:47;;;;;;;3.47;3.17;;;;;;;21.92;51.15;102108.06;10459521;28;20037;-71
2022/08/29 15:31:47;;;;;;;3.50;3.10;;;;;;;21.95;51.04;102087.41;10459162;28;20432;-71
2022/08/29 15:36:48;;;;;;;2.92;2.70;;;;;;;21.92;50.42;102079.63;10458841;28;20067;-71
2022/08/29 15:41:48;;;;;;;4.72;3.10;;;;;;;22.34;50.07;102074.69;10458342;28;20044;-71
2022/08/29 15:46:48;;;;;;;5.07;2.97;;;;;;;22.82;49.98;102076.06;10457178;28;20025;-70
2022/08/29 15:51:50;;;;;;;3.83;2.20;;;;;;;22.65;51.18;102075.22;10458407;28;20037;-71
2022/08/29 15:56:50;;;;;;;9.95;2.65;;;;;;;21.99;52.96;102074.81;10457327;28;20032;-71
2022/08/29 16:01:52;;;;;;;5.07;2.78;;;;;;;21.53;53.72;102071.91;10456777;28;20040;-70
2022/08/29 16:06:52;;;;;;;4.20;2.75;;;;;;;21.04;54.99;102070.50;10456500;28;20037;-70
2022/08/29 16:11:53;;;;;;;5.38;2.55;;;;;;;20.74;55.95;102076.06;10456020;28;20500;-71
2022/08/29 16:16:53;;;;;;;2.95;2.75;;;;;;;20.56;57.44;102086.09;10456719;28;20523;-70
2022/08/29 16:21:58;;;;;;;3.47;2.63;;;;;;;20.56;57.88;102080.59;10457456;28;20072;-70
2022/08/29 16:26:59;;;;;;;13.43;2.85;;;;;;;20.72;57.32;102078.25;10457694;28;20029;-71
2022/08/29 16:31:59;;;;;;;9.85;3.45;;;;;;;20.80;57.82;102064.13;10455602;28;20037;-70
2022/08/29 16:37:00;;;;;;;5.75;2.72;;;;;;;21.01;57.34;102082.00;10457152;28;20079;-70
2022/08/29 16:42:00;;;;;;;3.45;2.90;;;;;;;21.02;57.46;102073.47;10438724;28;20507;-70
2022/08/29 16:47:01;;;;;;;9.00;2.78;;;;;;;20.95;58.66;102066.41;10456421;28;20065;-70
2022/08/29 16:52:02;;;;;;;8.23;2.95;;;;;;;20.86;59.37;102065.94;10438459;28;20388;-70
2022/08/29 16:57:03;;;;;;;2.95;2.20;;;;;;;20.76;60.04;102060.19;10456122;28;20044;-70
2022/08/29 17:02:03;;;;;;;3.33;3.00;;;;;;;20.67;60.58;102046.75;10454940;28;20500;-71
2022/08/29 17:07:03;;;;;;;9.57;2.35;;;;;;;20.61;60.64;102055.97;10456047;28;20051;-71
2022/08/29 17:17:04;;;;;;;4.78;2.17;;;;;;;20.63;61.89;102058.47;10456584;28;20044;-70
2022/08/29 17:22:05;;;;;;;1.77;1.67;;;;;;;20.60;61.80;102046.03;10456161;28;20068;-70
2022/08/29 17:27:05;;;;;;;2.70;2.45;;;;;;;20.51;62.31;102041.94;10454917;28;20029;-71
2022/08/29 17:32:06;;;;;;;2.42;2.03;;;;;;;20.31;63.68;102038.63;10455421;28;20037;-70
2022/08/29 17:37:07;;;;;;;5.32;2.78;;;;;;;20.25;62.81;102036.81;10453718;28;20060;-70
2022/08/29 17:42:08;;;;;;;11.85;2.72;;;;;;;20.15;62.17;102048.38;10437788;28;20033;-71
2022/08/29 17:47:08;;;;;;;4.72;2.28;;;;;;;20.07;61.77;102043.19;10453663;28;20036;-70
2022/08/29 17:52:08;;;;;;;7.10;2.83;;;;;;;19.92;61.71;102046.38;10454961;28;20062;-71
2022/08/29 17:57:09;;;;;;;3.20;2.35;;;;;;;19.80;61.73;102049.06;10470804;28;20341;-71
2022/08/29 18:02:09;;;;;;;3.50;2.08;;;;;;;19.70;61.84;102046.88;10454471;28;20048;-70
2022/08/29 18:07:10;;;;;;;5.13;1.73;;;;;;;19.60;62.03;102052.03;10453306;28;20059;-72
2022/08/29 18:12:10;;;;;;;8.35;2.85;;;;;;;19.49;62.01;102047.28;10453487;28;20056;-70
2022/08/29 18:17:10;;;;;;;3.97;2.50;;;;;;;19.39;62.16;102053.31;10453015;28;20041;-70
2022/08/29 18:22:11;;;;;;;2.92;2.33;;;;;;;19.28;62.10;102054.09;10459878;28;20440;-71
2022/08/29 18:27:11;;;;;;;6.03;3.08;;;;;;;19.11;62.34;102051.06;10461600;28;20041;-70
2022/08/29 18:32:12;;;;;;;7.32;1.85;;;;;;;18.96;62.42;102048.69;10461938;28;20044;-70
2022/08/29 18:37:12;;;;;;;4.45;3.25;;;;;;;18.85;62.20;102054.06;10466206;28;20059;-70
2022/08/29 18:42:13;;;;;;;8.00;2.95;;;;;;;18.72;62.95;102086.06;10500148;28;20513;-73
2022/08/29 18:47:13;;;;;;;8.48;2.47;;;;;;;18.60;63.16;102085.06;10500148;28;20040;-69
2022/08/29 18:52:13;;;;;;;9.23;3.33;;;;;;;18.52;63.98;102085.34;10499677;28;20028;-72
2022/08/29 18:57:14;;;;;;;5.97;2.10;;;;;;;18.40;64.33;102107.13;10498824;28;20037;-72
2022/08/29 19:02:15;;;;;;;5.90;2.50;;;;;;;18.27;64.65;102108.03;10501093;28;20438;-69
2022/08/29 19:07:15;;;;;;;2.05;1.95;;;;;;;18.15;65.13;102106.22;10494601;28;20034;-70
2022/08/29 19:12:16;;;;;;;4.20;3.70;;;;;;;18.03;65.57;102104.19;10499597;28;20156;-70
2022/08/29 19:17:16;;;;;;;5.28;2.72;;;;;;;17.92;65.69;102106.75;10499670;28;20032;-71
2022/08/29 19:22:16;;;;;;;4.72;3.80;;;;;;;17.82;66.28;102113.53;10498794;28;20442;-70
2022/08/29 19:27:17;;;;;;;8.90;4.07;;;;;;;17.74;67.49;102113.75;10499468;28;20036;-74
2022/08/29 19:32:18;;;;;;;10.38;4.65;;;;;;;17.71;67.62;102116.91;10481898;28;20036;-71
2022/08/29 19:37:18;;;;;;;3.95;3.65;;;;;;;17.62;68.44;102118.19;10499793;28;20033;-71
2022/08/29 19:42:19;;;;;;;10.20;3.75;;;;;;;17.56;70.31;102121.81;10498402;28;20050;-70
2022/08/29 19:47:19;;;;;;;6.50;3.80;;;;;;;17.51;69.95;102122.41;10503434;28;20399;-71
2022/08/29 19:52:20;;;;;;;11.98;4.40;;;;;;;17.50;71.44;102119.91;10539782;28;20071;-71
2022/08/29 19:57:21;;;;;;;6.75;4.10;;;;;;;17.46;70.58;102118.66;10513115;28;20039;-70
2022/08/29 20:02:21;;;;;;;6.95;4.65;;;;;;;17.38;70.93;102111.50;10498970;28;20170;-71
2022/08/29 20:07:21;;;;;;;13.95;5.15;;;;;;;17.38;72.44;102111.50;10499035;28;20060;-71
2022/08/29 20:12:22;;;;;;;9.90;4.35;;;;;;;17.34;72.34;102111.09;10481151;28;20049;-72
2022/08/29 20:17:22;;;;;;;9.65;4.75;;;;;;;17.31;72.76;102114.25;10498159;28;20091;-71
2022/08/29 20:22:23;;;;;;;13.20;4.40;;;;;;;17.28;73.30;102117.41;10497302;28;20036;-72
2022/08/29 20:27:23;;;;;;;9.30;3.92;;;;;;;17.32;76.93;102120.56;10497157;28;20041;-72
2022/08/29 20:32:23;;;;;;;8.00;4.82;;;;;;;17.34;83.63;102121.19;10496920;28;20036;-71
2022/08/29 20:37:24;;;;;;;11.18;4.85;;;;;;;17.33;79.91;102125.84;10498185;28;20465;-70
2022/08/29 20:42:25;;;;;;;7.05;5.05;;;;;;;17.34;82.72;102122.03;10495809;28;20503;-71
2022/08/29 20:47:26;;;;;;;10.32;4.78;;;;;;;17.31;81.83;102125.19;10496734;28;20472;-71
2022/08/29 20:52:26;;;;;;;9.02;3.75;;;;;;;17.25;81.52;102128.78;10496364;28;20116;-72
2022/08/29 20:57:26;;;;;;;16.65;5.07;;;;;;;17.22;83.56;102123.72;10497494;28;20078;-71
2022/08/29 21:07:46;;;;;;;11.43;4.63;;;;;;;17.13;83.17;102125.00;10496357;28;20036;-70
2022/08/29 21:12:47;;;;;;;7.85;5.03;;;;;;;17.07;84.84;102129.44;10496351;28;20459;-71
2022/08/29 21:17:47;;;;;;;13.20;5.38;;;;;;;17.01;87.83;102122.06;10496471;28;20032;-70
2022/08/29 21:22:48;;;;;;;14.32;4.68;;;;;;;17.03;85.75;102124.59;10496071;28;20454;-71
2022/08/29 21:27:48;;;;;;;12.88;4.68;;;;;;;16.92;86.11;102123.34;10462636;28;20392;-71
2022/08/29 21:32:49;;;;;;;8.50;4.28;;;;;;;16.91;84.77;102127.09;10496824;28;20033;-71
2022/08/29 21:37:49;;;;;;;7.18;4.60;;;;;;;16.85;85.78;102131.53;10497168;28;20032;-71
2022/08/29 21:42:54;;;;;;;12.77;6.07;;;;;;;16.83;86.29;102136.38;10461854;28;20038;-71
2022/08/29 21:47:55;;;;;;;17.58;6.65;;;;;;;16.76;85.08;102130.06;10479164;28;20028;-70
2022/08/29 21:52:56;;;;;;;11.43;5.95;;;;;;;16.73;88.04;102135.91;10495361;28;20078;-71
2022/08/29 21:58:00;;;;;;;7.72;5.47;;;;;;;16.64;87.35;102131.69;10504162;28;20040;-71
2022/08/29 22:03:02;;;;;;;6.88;3.95;;;;;;;16.64;87.99;102131.69;10504258;28;20107;-71
2022/08/29 22:08:03;;;;;;;5.82;4.85;;;;;;;16.60;86.90;102135.88;10486800;28;20120;-71
2022/08/29 22:13:04;;;;;;;8.98;4.55;;;;;;;16.60;87.07;102141.34;10506213;28;20056;-72
2022/08/29 22:18:05;;;;;;;13.98;5.47;;;;;;;16.62;87.86;102139.25;10486157;28;20032;-70
2022/08/29 22:23:05;;;;;;;18.08;6.30;;;;;;;16.57;87.36;102152.72;10486039;28;20041;-71
2022/08/29 22:28:05;;;;;;;5.68;5.22;;;;;;;16.50;92.51;102150.78;10503553;28;20043;-71
2022/08/29 22:33:06;;;;;;;9.32;6.88;;;;;;;16.43;92.31;102138.13;10468791;28;20060;-70
2022/08/29 22:38:06;;;;;;;18.90;7.43;;;;;;;16.41;93.25;102141.09;10502525;28;20032;-70
2022/08/29 22:43:07;;;;;;;8.85;6.22;;;;;;;16.43;91.34;102144.47;10502370;28;20042;-70
2022/08/29 22:48:08;;;;;;;11.95;6.90;;;;;;;16.37;92.46;102145.31;10503152;28;20036;-70
2022/08/29 22:53:08;;;;;;;10.27;5.93;;;;;;;16.32;91.70;102156.00;10502334;28;20025;-70
2022/08/29 22:58:09;;;;;;;13.90;5.00;;;;;;;16.27;91.52;102163.94;10502684;28;20462;-70
2022/08/29 23:03:09;;;;;;;8.73;6.22;;;;;;;16.18;90.90;102151.53;10484221;28;20098;-70
2022/08/29 23:08:10;;;;;;;9.35;5.05;;;;;;;16.14;89.84;102158.44;10501575;28;20036;-70
2022/08/29 23:13:11;;;;;;;9.38;4.63;;;;;;;16.09;89.96;102164.53;10500063;28;20053;-70
2022/08/29 23:18:11;;;;;;;5.63;4.97;;;;;;;16.04;89.68;102150.63;10500510;28;20036;-71
2022/08/29 23:23:11;;;;;;;10.38;5.28;;;;;;;16.01;90.49;102153.75;10499971;28;20381;-70
2022/08/29 23:28:12;;;;;;;8.25;4.55;;;;;;;16.02;91.80;102156.31;10499847;28;20170;-70